createdAt,value
2023-03-31T00:02:24.811Z,18.60
2023-03-31T00:05:01.524Z,18.60
2023-03-31T00:07:36.273Z,18.80
2023-03-31T00:10:17.738Z,18.80
2023-03-31T00:12:52.120Z,18.80
2023-03-31T00:15:25.084Z,19.00
2023-03-31T00:18:02.284Z,19.10
2023-03-31T00:20:39.414Z,19.00
2023-03-31T00:23:17.173Z,19.00
2023-03-31T00:25:56.369Z,18.80
2023-03-31T00:28:37.242Z,18.80
2023-03-31T00:31:16.686Z,19.00
2023-03-31T00:33:53.843Z,19.20
2023-03-31T00:36:30.255Z,19.40
2023-03-31T00:39:12.554Z,19.40
2023-03-31T00:41:54.251Z,19.40
2023-03-31T00:44:31.258Z,19.50
2023-03-31T00:47:09.392Z,19.50
2023-03-31T00:49:46.507Z,19.90
2023-03-31T00:52:29.386Z,20.00
2023-03-31T00:55:13.699Z,20.20
2023-03-31T00:57:54.953Z,20.40
2023-03-31T01:00:36.474Z,20.00
2023-03-31T01:03:13.861Z,20.20
2023-03-31T01:05:57.431Z,20.40
2023-03-31T01:08:38.977Z,20.70
2023-03-31T01:11:25.686Z,20.70
2023-03-31T01:14:17.244Z,21.20
2023-03-31T01:16:55.087Z,21.50
2023-03-31T01:19:44.883Z,21.50
2023-03-31T01:23:02.409Z,22.00
2023-03-31T01:26:17.683Z,22.70
2023-03-31T01:29:03.002Z,23.50
2023-03-31T01:32:16.712Z,24.00
2023-03-31T01:35:32.167Z,24.10
2023-03-31T01:38:58.615Z,23.70
2023-03-31T01:41:51.872Z,23.80
2023-03-31T01:44:36.424Z,23.40
2023-03-31T01:47:15.293Z,23.30
2023-03-31T01:50:01.045Z,23.20
2023-03-31T01:52:47.065Z,23.20
2023-03-31T01:55:32.487Z,22.90
2023-03-31T01:58:19.352Z,23.10
2023-03-31T02:01:05.489Z,22.90
2023-03-31T02:03:56.017Z,22.60
2023-03-31T02:06:39.205Z,23.00
2023-03-31T02:09:17.545Z,23.10
2023-03-31T02:11:59.872Z,23.20
2023-03-31T02:14:40.511Z,23.20
2023-03-31T02:17:25.430Z,23.90
2023-03-31T02:20:00.967Z,24.20
2023-03-31T02:22:39.922Z,24.40
2023-03-31T02:25:20.872Z,24.40
2023-03-31T02:28:00.858Z,24.20
2023-03-31T02:30:53.583Z,24.30
2023-03-31T02:33:31.044Z,24.40
2023-03-31T02:36:11.205Z,24.10
2023-03-31T02:38:52.842Z,24.00
2023-03-31T02:41:27.809Z,24.30
2023-03-31T02:44:08.481Z,24.40
2023-03-31T02:46:51.514Z,24.50
2023-03-31T02:49:30.368Z,24.20
2023-03-31T02:52:37.380Z,24.20
2023-03-31T02:55:53.061Z,24.50
2023-03-31T02:58:47.133Z,24.40
2023-03-31T03:01:40.737Z,24.40
2023-03-31T03:05:01.967Z,24.60
2023-03-31T03:07:46.757Z,25.20
2023-03-31T03:10:43.145Z,25.90
2023-03-31T03:13:26.108Z,26.30
2023-03-31T03:16:20.569Z,26.90
2023-03-31T03:19:06.488Z,27.00
2023-03-31T03:21:54.665Z,26.80
2023-03-31T03:24:36.138Z,26.80
2023-03-31T03:27:12.307Z,26.70
2023-03-31T03:29:47.212Z,25.90
2023-03-31T03:32:20.356Z,24.90
2023-03-31T03:34:55.354Z,25.10
2023-03-31T03:37:35.314Z,25.90
2023-03-31T03:40:15.157Z,26.70
2023-03-31T03:42:52.008Z,26.30
2023-03-31T03:45:27.864Z,26.20
2023-03-31T03:48:05.003Z,25.60
2023-03-31T03:50:43.030Z,25.90
2023-03-31T03:53:22.739Z,26.20
2023-03-31T03:56:13.245Z,26.40
2023-03-31T03:58:52.239Z,26.40
2023-03-31T04:01:30.015Z,26.60
2023-03-31T04:04:05.392Z,26.10
2023-03-31T04:06:44.650Z,26.40
2023-03-31T04:09:21.330Z,26.60
2023-03-31T04:12:12.940Z,26.70
2023-03-31T04:14:53.811Z,26.60
2023-03-31T04:17:42.519Z,26.80
2023-03-31T04:20:24.139Z,26.50
2023-03-31T04:23:11.381Z,26.70
2023-03-31T04:25:56.196Z,26.70
2023-03-31T04:28:40.065Z,26.80
2023-03-31T04:31:36.343Z,26.80
2023-03-31T04:34:14.773Z,26.70
2023-03-31T04:36:54.028Z,26.20
2023-03-31T04:39:34.944Z,26.30
2023-03-31T04:42:16.441Z,26.30
2023-03-31T04:44:57.326Z,26.00
2023-03-31T04:47:38.822Z,25.50
2023-03-31T04:50:17.253Z,25.40
2023-03-31T04:52:53.823Z,25.40
2023-03-31T04:55:32.145Z,25.20
2023-03-31T04:58:10.730Z,25.60
2023-03-31T05:00:53.443Z,25.80
2023-03-31T05:03:36.036Z,25.50
2023-03-31T05:06:15.458Z,25.40
2023-03-31T05:09:14.550Z,25.50
2023-03-31T05:11:53.795Z,25.50
2023-03-31T05:14:32.057Z,25.10
2023-03-31T05:17:12.857Z,24.90
2023-03-31T05:19:51.068Z,24.80
2023-03-31T05:22:28.671Z,25.00
2023-03-31T05:25:12.228Z,25.00
2023-03-31T05:27:59.139Z,25.10
2023-03-31T05:30:52.729Z,25.30
2023-03-31T05:33:29.005Z,25.50
2023-03-31T05:36:09.548Z,25.70
2023-03-31T05:38:51.216Z,25.50
2023-03-31T05:41:33.386Z,25.70
2023-03-31T05:44:11.365Z,24.90
2023-03-31T05:46:54.090Z,24.80
2023-03-31T05:49:35.033Z,24.80
2023-03-31T05:52:13.548Z,24.90
2023-03-31T05:54:55.997Z,24.90
2023-03-31T05:57:34.213Z,25.20
2023-03-31T06:00:11.725Z,25.00
2023-03-31T06:02:52.854Z,25.10
2023-03-31T06:05:31.185Z,24.80
2023-03-31T06:08:12.756Z,24.90
2023-03-31T06:10:58.151Z,24.80
2023-03-31T06:13:38.152Z,24.70
2023-03-31T06:16:17.212Z,24.90
2023-03-31T06:18:58.278Z,25.30
2023-03-31T06:21:42.272Z,25.40
2023-03-31T06:24:22.377Z,25.10
2023-03-31T06:27:05.459Z,25.10
2023-03-31T06:29:51.606Z,25.20
2023-03-31T06:32:33.273Z,25.70
2023-03-31T06:35:13.838Z,26.00
2023-03-31T06:37:57.749Z,26.20
2023-03-31T06:40:33.069Z,26.20
2023-03-31T06:43:15.765Z,26.10
2023-03-31T06:46:04.236Z,25.90
2023-03-31T06:48:47.082Z,25.40
2023-03-31T06:51:32.783Z,24.90
2023-03-31T06:54:17.029Z,24.90
2023-03-31T06:56:52.262Z,25.30
2023-03-31T06:59:28.847Z,25.60
2023-03-31T07:02:14.960Z,25.10
2023-03-31T07:05:14.022Z,25.30
2023-03-31T07:07:56.814Z,25.50
2023-03-31T07:10:35.215Z,25.50
2023-03-31T07:13:16.275Z,25.70
2023-03-31T07:16:09.082Z,25.80
2023-03-31T07:18:52.148Z,25.70
2023-03-31T07:21:27.922Z,25.50
2023-03-31T07:24:05.132Z,25.40
2023-03-31T07:26:48.873Z,25.50
2023-03-31T07:29:25.242Z,25.50
2023-03-31T07:32:05.663Z,25.70
2023-03-31T07:34:42.799Z,25.70
2023-03-31T07:37:20.907Z,25.50
2023-03-31T07:40:02.850Z,25.00
2023-03-31T07:42:51.572Z,25.10
2023-03-31T07:45:31.304Z,25.10
2023-03-31T07:48:21.641Z,25.10
2023-03-31T07:51:03.138Z,25.00
2023-03-31T07:53:49.882Z,24.80
2023-03-31T07:56:40.521Z,24.70
2023-03-31T07:59:29.335Z,25.10
2023-03-31T08:02:14.726Z,24.50
2023-03-31T08:04:59.514Z,24.80
2023-03-31T08:07:39.085Z,25.10
2023-03-31T08:10:30.276Z,25.20
2023-03-31T08:13:16.201Z,25.10
2023-03-31T08:15:55.907Z,25.10
2023-03-31T08:18:43.319Z,24.90
2023-03-31T08:21:22.269Z,24.80
2023-03-31T08:24:12.646Z,24.60
2023-03-31T08:26:50.012Z,24.80
2023-03-31T08:29:32.051Z,24.90
2023-03-31T08:32:08.768Z,24.90
2023-03-31T08:34:54.700Z,24.70
2023-03-31T08:37:35.491Z,24.60
2023-03-31T08:40:17.448Z,24.70
2023-03-31T08:43:09.830Z,24.60
2023-03-31T08:45:56.035Z,24.50
2023-03-31T08:48:33.088Z,24.60
2023-03-31T08:51:12.493Z,24.60
2023-03-31T08:53:57.596Z,24.30
2023-03-31T08:56:34.278Z,24.30
2023-03-31T08:59:25.076Z,24.10
2023-03-31T09:02:25.243Z,24.20
2023-03-31T09:05:23.908Z,23.80
2023-03-31T09:08:11.262Z,23.80
2023-03-31T09:11:00.897Z,23.70
2023-03-31T09:14:03.071Z,23.70
2023-03-31T09:16:45.959Z,23.50
2023-03-31T09:19:31.670Z,23.60
2023-03-31T09:22:08.602Z,23.80
2023-03-31T09:24:53.495Z,23.90
2023-03-31T09:27:37.069Z,24.20
2023-03-31T09:30:23.746Z,24.50
2023-03-31T09:33:07.382Z,24.90
2023-03-31T09:35:57.036Z,24.90
2023-03-31T09:38:39.090Z,24.70
2023-03-31T09:41:22.091Z,24.70
2023-03-31T09:44:07.499Z,24.50
2023-03-31T09:46:45.974Z,24.20
2023-03-31T09:49:27.032Z,23.90
2023-03-31T09:52:15.506Z,24.00
2023-03-31T09:55:07.541Z,24.00
2023-03-31T09:57:49.703Z,23.80
2023-03-31T10:00:27.467Z,23.60
2023-03-31T10:03:11.240Z,23.20
2023-03-31T10:06:12.535Z,23.20
2023-03-31T10:08:57.507Z,23.20
2023-03-31T10:11:46.641Z,23.30
2023-03-31T10:14:39.688Z,23.30
2023-03-31T10:17:24.877Z,23.30
2023-03-31T10:20:08.830Z,23.20
2023-03-31T10:22:51.152Z,23.00
2023-03-31T10:25:42.408Z,22.70
2023-03-31T10:28:24.695Z,22.50
2023-03-31T10:31:03.276Z,22.40
2023-03-31T10:33:53.143Z,22.40
2023-03-31T10:36:33.248Z,22.40
2023-03-31T10:39:12.904Z,22.40
2023-03-31T10:41:54.599Z,22.30
2023-03-31T10:44:42.446Z,22.20
2023-03-31T10:47:42.985Z,22.30
2023-03-31T10:50:39.411Z,22.30
2023-03-31T10:53:21.357Z,22.20
2023-03-31T10:56:19.966Z,22.10
2023-03-31T10:59:24.129Z,22.10
2023-03-31T11:02:40.259Z,22.20
2023-03-31T11:05:35.986Z,22.10
2023-03-31T11:08:52.092Z,22.00
2023-03-31T11:11:55.560Z,22.00
2023-03-31T11:14:59.103Z,22.00
2023-03-31T11:17:54.571Z,21.90
2023-03-31T11:20:42.339Z,21.70
2023-03-31T11:23:33.142Z,21.70
2023-03-31T11:26:12.359Z,21.80
2023-03-31T11:29:23.729Z,21.70
2023-03-31T11:32:21.872Z,21.70
2023-03-31T11:35:22.845Z,21.70
2023-03-31T11:38:47.670Z,21.60
2023-03-31T11:41:26.744Z,21.50
2023-03-31T11:44:07.870Z,21.40
2023-03-31T11:46:52.035Z,21.40
2023-03-31T11:49:41.143Z,21.40
2023-03-31T11:52:40.898Z,21.40
2023-03-31T11:55:29.182Z,21.40
2023-03-31T11:58:17.670Z,21.50
2023-03-31T12:00:56.586Z,21.50
2023-03-31T12:03:44.158Z,21.40
2023-03-31T12:06:38.406Z,21.30
2023-03-31T12:09:41.590Z,21.20
2023-03-31T12:12:48.629Z,21.30
2023-03-31T12:15:32.348Z,21.30
2023-03-31T12:18:18.933Z,21.40
2023-03-31T12:21:07.458Z,21.30
2023-03-31T12:23:54.312Z,21.30
2023-03-31T12:26:50.582Z,21.30
2023-03-31T12:29:48.147Z,21.30
2023-03-31T12:32:44.538Z,21.30
2023-03-31T12:35:29.104Z,21.30
2023-03-31T12:38:26.259Z,21.30
2023-03-31T12:41:14.771Z,21.20
2023-03-31T12:44:30.311Z,21.20
2023-03-31T12:47:48.972Z,21.10
2023-03-31T12:50:49.446Z,21.10
2023-03-31T12:53:39.328Z,21.10
2023-03-31T12:56:21.544Z,21.10
2023-03-31T12:59:27.115Z,21.10
2023-03-31T13:02:31.931Z,20.90
2023-03-31T13:05:51.789Z,20.80
2023-03-31T13:09:16.352Z,20.80
2023-03-31T13:12:25.846Z,20.70
2023-03-31T13:15:35.501Z,20.80
2023-03-31T13:18:33.800Z,20.80
2023-03-31T13:21:18.661Z,20.80
2023-03-31T13:27:05.399Z,20.80
2023-03-31T13:30:00.219Z,20.70
2023-03-31T13:32:43.969Z,20.70
2023-03-31T13:35:37.213Z,20.70
2023-03-31T13:38:41.720Z,20.80
2023-03-31T13:41:38.398Z,20.80
2023-03-31T13:44:53.853Z,20.80
2023-03-31T13:48:17.189Z,20.60
2023-03-31T13:51:35.099Z,20.60
2023-03-31T13:54:51.568Z,20.70
2023-03-31T13:57:56.609Z,20.70
2023-03-31T14:00:59.766Z,20.70
2023-03-31T14:04:09.887Z,20.80
2023-03-31T14:06:57.990Z,20.70
2023-03-31T14:10:04.999Z,20.60
2023-03-31T14:12:55.754Z,20.60
2023-03-31T14:15:44.638Z,20.70
2023-03-31T14:18:45.642Z,20.90
2023-03-31T14:21:45.275Z,20.90
2023-03-31T14:24:38.044Z,21.00
2023-03-31T14:27:34.170Z,20.80
2023-03-31T14:30:39.964Z,20.70
2023-03-31T14:33:34.431Z,20.70
2023-03-31T14:36:24.404Z,20.70
2023-03-31T14:39:10.671Z,20.60
2023-03-31T14:42:20.408Z,20.60
2023-03-31T14:45:04.577Z,20.60
2023-03-31T14:47:49.380Z,20.50
2023-03-31T14:50:37.672Z,20.50
2023-03-31T14:53:30.118Z,20.60
2023-03-31T14:56:24.991Z,20.60
2023-03-31T14:59:24.871Z,20.60
2023-03-31T15:02:14.049Z,20.60
2023-03-31T15:05:00.377Z,20.60
2023-03-31T15:07:45.925Z,20.70
2023-03-31T15:10:42.386Z,20.80
2023-03-31T15:13:28.794Z,20.70
2023-03-31T15:16:12.460Z,20.60
2023-03-31T15:18:52.417Z,20.60
2023-03-31T15:21:39.788Z,20.50
2023-03-31T15:24:19.911Z,20.60
2023-03-31T15:27:06.654Z,20.70
2023-03-31T15:30:03.131Z,20.70
2023-03-31T15:33:04.214Z,20.70
2023-03-31T15:35:59.671Z,20.70
2023-03-31T15:38:44.368Z,20.70
2023-03-31T15:41:28.894Z,20.70
2023-03-31T15:44:38.365Z,20.60
2023-03-31T15:47:26.916Z,20.70
2023-03-31T15:50:18.362Z,20.70
2023-03-31T15:53:05.127Z,20.50
2023-03-31T15:56:01.205Z,20.40
2023-03-31T15:59:05.240Z,20.40
2023-03-31T16:01:47.314Z,20.40
2023-03-31T16:04:34.253Z,20.40
2023-03-31T16:07:26.928Z,20.50
2023-03-31T16:10:07.285Z,20.40
2023-03-31T16:12:46.063Z,20.30
2023-03-31T16:15:38.114Z,20.30
2023-03-31T16:18:18.662Z,20.20
2023-03-31T16:21:04.070Z,20.40
2023-03-31T16:23:47.827Z,20.40
2023-03-31T16:26:27.631Z,20.40
2023-03-31T16:29:13.643Z,20.50
2023-03-31T16:32:17.579Z,20.50
2023-03-31T16:35:05.778Z,20.50
2023-03-31T16:38:02.281Z,20.50
2023-03-31T16:40:58.378Z,20.30
2023-03-31T16:43:41.040Z,20.30
2023-03-31T16:46:21.019Z,20.30
2023-03-31T16:48:56.862Z,20.10
2023-03-31T16:51:33.125Z,20.10
2023-03-31T16:54:07.400Z,20.00
2023-03-31T16:56:53.003Z,19.80
2023-03-31T16:59:31.281Z,19.70
2023-03-31T17:02:10.940Z,19.70
2023-03-31T17:04:49.519Z,19.70
2023-03-31T17:07:38.536Z,19.80
2023-03-31T17:10:28.802Z,19.80
2023-03-31T17:13:16.845Z,19.80
2023-03-31T17:19:02.935Z,19.60
2023-03-31T17:21:43.247Z,19.70
2023-03-31T17:24:20.348Z,19.70
2023-03-31T17:26:59.671Z,19.60
2023-03-31T17:29:44.074Z,19.40
2023-03-31T17:32:19.290Z,19.50
2023-03-31T17:35:01.932Z,19.50
2023-03-31T17:37:40.007Z,19.40
2023-03-31T17:40:26.702Z,19.40
2023-03-31T17:43:08.384Z,19.40
2023-03-31T17:45:46.188Z,19.50
2023-03-31T17:48:36.174Z,19.40
2023-03-31T17:51:15.511Z,19.50
2023-03-31T17:53:52.849Z,19.40
2023-03-31T17:56:28.898Z,19.20
2023-03-31T17:59:08.469Z,19.30
2023-03-31T18:01:56.895Z,19.20
2023-03-31T18:04:35.070Z,19.20
2023-03-31T18:07:13.446Z,19.20
2023-03-31T18:09:50.772Z,19.30
2023-03-31T18:12:27.719Z,19.10
2023-03-31T18:15:04.457Z,19.00
2023-03-31T18:17:46.376Z,19.00
2023-03-31T18:20:24.685Z,18.90
2023-03-31T18:22:59.794Z,18.70
2023-03-31T18:25:40.195Z,18.80
2023-03-31T18:28:18.138Z,18.80
2023-03-31T18:30:55.734Z,18.80
2023-03-31T18:33:37.179Z,18.70
2023-03-31T18:36:17.583Z,18.60
2023-03-31T18:38:52.135Z,18.60
2023-03-31T18:41:26.916Z,18.50
2023-03-31T18:44:02.375Z,18.30
2023-03-31T18:46:35.898Z,18.30
2023-03-31T18:49:13.733Z,18.40
2023-03-31T18:51:50.070Z,18.40
2023-03-31T18:54:25.527Z,18.40
2023-03-31T18:57:05.600Z,18.40
2023-03-31T18:59:40.243Z,18.30
2023-03-31T19:02:18.606Z,18.40
2023-03-31T19:04:54.223Z,18.30
2023-03-31T19:07:27.640Z,18.30
2023-03-31T19:10:01.552Z,18.20
2023-03-31T19:12:35.722Z,18.10
2023-03-31T19:15:10.372Z,18.20
2023-03-31T19:17:46.190Z,18.20
2023-03-31T19:20:21.712Z,18.30
2023-03-31T19:22:56.749Z,18.20
2023-03-31T19:25:31.737Z,18.30
2023-03-31T19:28:06.374Z,18.30
2023-03-31T19:30:40.527Z,18.40
2023-03-31T19:33:16.775Z,18.40
2023-03-31T19:35:52.684Z,18.30
2023-03-31T19:38:33.375Z,18.20
2023-03-31T19:41:08.541Z,18.30
2023-03-31T19:43:49.512Z,18.10
2023-03-31T19:46:23.688Z,18.20
2023-03-31T19:48:57.863Z,18.00
2023-03-31T19:51:33.903Z,18.00
2023-03-31T19:54:08.530Z,18.10
2023-03-31T19:56:42.885Z,18.10
2023-03-31T19:59:16.652Z,18.10
2023-03-31T20:01:52.867Z,18.10
2023-03-31T20:04:27.610Z,18.10
2023-03-31T20:07:07.049Z,18.00
2023-03-31T20:09:40.894Z,18.10
2023-03-31T20:12:13.724Z,18.00
2023-03-31T20:14:47.778Z,18.00
2023-03-31T20:17:22.314Z,18.00
2023-03-31T20:19:56.432Z,18.00
2023-03-31T20:22:32.592Z,17.90
2023-03-31T20:25:06.444Z,18.00
2023-03-31T20:27:42.234Z,18.10
2023-03-31T20:30:20.927Z,18.10
2023-03-31T20:32:55.187Z,18.00
2023-03-31T20:35:28.774Z,17.90
2023-03-31T20:38:05.628Z,17.90
2023-03-31T20:40:40.085Z,17.90
2023-03-31T20:43:14.417Z,17.90
2023-03-31T20:45:59.409Z,18.00
2023-03-31T20:48:34.231Z,17.80
2023-03-31T20:51:08.721Z,17.80
2023-03-31T20:53:45.595Z,17.90
2023-03-31T20:56:21.281Z,18.00
2023-03-31T20:58:57.536Z,17.90
2023-03-31T21:01:32.955Z,18.00
2023-03-31T21:04:07.493Z,17.90
2023-03-31T21:06:42.918Z,17.70
2023-03-31T21:09:19.807Z,17.80
2023-03-31T21:11:54.291Z,17.80
2023-03-31T21:14:29.399Z,17.80
2023-03-31T21:17:03.924Z,17.70
2023-03-31T21:19:37.014Z,17.70
2023-03-31T21:22:10.930Z,17.70
2023-03-31T21:24:45.948Z,17.70
2023-03-31T21:27:20.720Z,17.70
2023-03-31T21:29:55.075Z,17.70
2023-03-31T21:32:32.910Z,17.70
2023-03-31T21:35:07.773Z,17.60
2023-03-31T21:37:41.656Z,17.60
2023-03-31T21:40:18.226Z,17.70
2023-03-31T21:42:52.132Z,17.70
2023-03-31T21:45:26.509Z,17.80
2023-03-31T21:48:01.597Z,17.70
2023-03-31T21:50:36.892Z,17.70
2023-03-31T21:53:11.276Z,17.70
2023-03-31T21:55:46.370Z,17.80
2023-03-31T21:58:21.595Z,17.60
2023-03-31T22:00:55.528Z,17.60
2023-03-31T22:03:33.953Z,17.60
2023-03-31T22:06:10.192Z,17.70
2023-03-31T22:08:44.222Z,17.70
2023-03-31T22:11:20.580Z,17.70
2023-03-31T22:13:53.190Z,17.80
2023-03-31T22:16:28.444Z,17.80
2023-03-31T22:19:02.309Z,17.80
2023-03-31T22:21:46.191Z,17.80
2023-03-31T22:24:20.637Z,17.80
2023-03-31T22:26:56.517Z,17.80
2023-03-31T22:29:30.094Z,17.60
2023-03-31T22:32:04.155Z,17.60
2023-03-31T22:34:38.151Z,17.50
2023-03-31T22:37:11.911Z,17.60
2023-03-31T22:39:45.286Z,17.60
2023-03-31T22:42:21.157Z,17.60
2023-03-31T22:44:54.837Z,17.60
2023-03-31T22:47:29.693Z,17.60
2023-03-31T22:50:04.797Z,17.80
2023-03-31T22:52:40.813Z,17.90
2023-03-31T22:55:15.614Z,17.90
2023-03-31T22:57:50.380Z,18.00
2023-03-31T23:00:24.985Z,18.00
2023-03-31T23:02:59.610Z,18.10
2023-03-31T23:05:34.051Z,18.10
2023-03-31T23:08:08.291Z,18.10
2023-03-31T23:10:42.637Z,18.20
2023-03-31T23:13:20.168Z,18.30
2023-03-31T23:15:57.635Z,18.40
2023-03-31T23:18:34.331Z,18.60
2023-03-31T23:21:12.978Z,18.80
2023-03-31T23:23:48.368Z,18.90
2023-03-31T23:26:24.644Z,19.00
2023-03-31T23:29:02.040Z,19.20
2023-03-31T23:31:36.926Z,19.30
2023-03-31T23:34:17.055Z,19.40
2023-03-31T23:36:54.104Z,19.40
2023-03-31T23:39:27.701Z,19.40
2023-03-31T23:42:00.941Z,19.40
2023-03-31T23:44:40.998Z,19.20
2023-03-31T23:47:15.954Z,19.20
2023-03-31T23:49:50.066Z,19.20
2023-03-31T23:52:26.449Z,19.30
2023-03-31T23:55:09.207Z,19.30
2023-03-31T23:57:42.579Z,19.20
